createdAt,value
2022-08-30T00:00:15.494Z,19.58
2022-08-30T00:02:42.171Z,20.20
2022-08-30T00:05:09.569Z,21.60
2022-08-30T00:07:36.449Z,18.52
2022-08-30T00:10:04.412Z,19.58
2022-08-30T00:12:32.693Z,18.83
2022-08-30T00:14:59.593Z,21.67
2022-08-30T00:17:26.664Z,19.35
2022-08-30T00:19:55.881Z,22.63
2022-08-30T00:22:22.493Z,23.30
2022-08-30T00:24:49.755Z,18.20
2022-08-30T00:27:16.899Z,23.17
2022-08-30T00:29:43.553Z,18.73
2022-08-30T00:32:10.274Z,20.90
2022-08-30T00:34:37.045Z,21.50
2022-08-30T00:37:03.679Z,25.52
2022-08-30T00:39:30.508Z,23.75
2022-08-30T00:41:57.283Z,21.15
2022-08-30T00:44:24.378Z,19.60
2022-08-30T00:46:51.112Z,19.05
2022-08-30T00:49:17.963Z,27.55
2022-08-30T00:51:44.761Z,18.73
2022-08-30T00:54:12.393Z,21.38
2022-08-30T00:56:39.198Z,23.38
2022-08-30T00:59:07.975Z,19.67
2022-08-30T01:01:36.203Z,21.00
2022-08-30T01:04:06.379Z,22.75
2022-08-30T01:06:34.149Z,21.27
2022-08-30T01:09:03.031Z,19.35
2022-08-30T01:11:32.633Z,24.17
2022-08-30T01:13:59.667Z,22.48
2022-08-30T01:16:27.263Z,22.08
2022-08-30T01:18:57.561Z,21.50
2022-08-30T01:21:46.284Z,20.75
2022-08-30T01:24:14.059Z,23.30
2022-08-30T01:26:41.158Z,21.58
2022-08-30T01:29:11.640Z,23.83
2022-08-30T01:31:38.388Z,22.73
2022-08-30T01:34:07.660Z,24.88
2022-08-30T01:36:37.765Z,25.75
2022-08-30T01:39:16.895Z,20.48
2022-08-30T01:41:43.903Z,20.42
2022-08-30T01:44:11.867Z,20.83
2022-08-30T01:46:45.728Z,20.55
2022-08-30T01:49:15.457Z,19.98
2022-08-30T01:51:42.650Z,23.75
2022-08-30T01:54:10.090Z,22.15
2022-08-30T01:56:36.924Z,20.08
2022-08-30T01:59:04.290Z,21.55
2022-08-30T02:01:33.461Z,22.13
2022-08-30T02:04:00.551Z,27.58
2022-08-30T02:06:27.471Z,23.15
2022-08-30T02:08:54.294Z,18.65
2022-08-30T02:11:21.193Z,22.75
2022-08-30T02:13:47.857Z,27.33
2022-08-30T02:16:19.207Z,21.52
2022-08-30T02:18:46.044Z,23.17
2022-08-30T02:21:13.730Z,24.42
2022-08-30T02:23:40.915Z,20.25
2022-08-30T02:26:08.399Z,24.75
2022-08-30T02:28:35.541Z,17.48
2022-08-30T02:31:10.458Z,18.27
2022-08-30T02:33:38.650Z,22.83
2022-08-30T02:36:08.422Z,23.00
2022-08-30T02:38:35.490Z,19.00
2022-08-30T02:41:02.367Z,17.75
2022-08-30T02:43:29.017Z,19.80
2022-08-30T02:45:55.810Z,21.55
2022-08-30T02:48:22.486Z,24.60
2022-08-30T02:50:52.212Z,24.45
2022-08-30T02:53:21.099Z,22.52
2022-08-30T02:55:48.459Z,26.65
2022-08-30T02:58:15.729Z,28.77
2022-08-30T03:00:42.499Z,24.20
2022-08-30T03:03:09.301Z,23.42
2022-08-30T03:05:37.958Z,19.35
2022-08-30T03:08:07.905Z,24.98
2022-08-30T03:10:34.701Z,25.23
2022-08-30T03:13:01.396Z,27.08
2022-08-30T03:15:28.189Z,29.38
2022-08-30T03:17:55.959Z,32.28
2022-08-30T03:20:23.875Z,28.38
2022-08-30T03:22:50.488Z,31.27
2022-08-30T03:25:18.190Z,25.85
2022-08-30T03:27:44.763Z,31.10
2022-08-30T03:30:12.268Z,31.25
2022-08-30T03:32:39.622Z,33.58
2022-08-30T03:35:08.016Z,28.38
2022-08-30T03:37:35.886Z,34.75
2022-08-30T03:40:07.611Z,30.40
2022-08-30T03:45:02.393Z,35.80
2022-08-30T03:47:29.625Z,26.92
2022-08-30T03:49:56.790Z,28.23
2022-08-30T03:52:23.645Z,29.60
2022-08-30T03:54:50.293Z,27.70
2022-08-30T03:57:19.709Z,35.47
2022-08-30T03:59:46.427Z,36.25
2022-08-30T04:02:13.150Z,45.03
2022-08-30T04:04:39.801Z,25.80
2022-08-30T04:07:06.536Z,33.35
2022-08-30T04:09:33.447Z,29.17
2022-08-30T04:12:00.304Z,28.52
2022-08-30T04:14:26.982Z,31.35
2022-08-30T04:16:53.791Z,28.00
2022-08-30T04:19:20.479Z,36.65
2022-08-30T04:21:47.206Z,33.58
2022-08-30T04:24:13.914Z,34.17
2022-08-30T04:26:40.620Z,36.63
2022-08-30T04:29:07.264Z,32.08
2022-08-30T04:31:33.961Z,25.73
2022-08-30T04:34:00.582Z,27.98
2022-08-30T04:36:27.320Z,25.65
2022-08-30T04:38:54.183Z,23.83
2022-08-30T04:41:24.553Z,29.17
2022-08-30T04:43:51.586Z,27.75
2022-08-30T04:46:19.680Z,25.98
2022-08-30T04:48:46.887Z,26.23
2022-08-30T04:51:16.347Z,26.90
2022-08-30T04:53:44.108Z,29.40
2022-08-30T04:56:16.608Z,25.50
2022-08-30T04:58:45.208Z,24.67
2022-08-30T05:01:18.989Z,28.40
2022-08-30T05:03:47.917Z,25.85
2022-08-30T05:06:15.261Z,31.20
2022-08-30T05:08:45.982Z,31.25
2022-08-30T05:11:13.472Z,30.40
2022-08-30T05:13:40.210Z,30.80
2022-08-30T05:16:08.722Z,37.83
2022-08-30T05:18:36.624Z,34.30
2022-08-30T05:21:12.757Z,33.30
2022-08-30T05:23:40.630Z,38.40
2022-08-30T05:26:10.235Z,35.72
2022-08-30T05:28:37.165Z,37.90
2022-08-30T05:31:14.022Z,39.08
2022-08-30T05:33:41.947Z,40.70
2022-08-30T05:36:09.882Z,38.22
2022-08-30T05:38:36.607Z,35.78
2022-08-30T05:41:08.257Z,44.28
2022-08-30T05:43:38.187Z,40.78
2022-08-30T05:46:11.548Z,42.83
2022-08-30T05:48:39.340Z,46.17
2022-08-30T05:51:12.838Z,32.80
2022-08-30T05:53:40.685Z,33.97
2022-08-30T05:56:10.814Z,38.03
2022-08-30T05:58:38.056Z,31.65
2022-08-30T06:01:05.591Z,24.45
2022-08-30T06:03:32.979Z,24.13
2022-08-30T06:06:00.691Z,22.98
2022-08-30T06:08:27.570Z,27.50
2022-08-30T06:10:54.281Z,25.60
2022-08-30T06:13:21.071Z,26.90
2022-08-30T06:15:48.154Z,33.78
2022-08-30T06:18:14.766Z,25.90
2022-08-30T06:20:50.224Z,20.73
2022-08-30T06:23:18.113Z,27.35
2022-08-30T06:25:45.106Z,30.33
2022-08-30T06:28:12.574Z,27.08
2022-08-30T06:30:41.151Z,24.27
2022-08-30T06:33:07.971Z,27.27
2022-08-30T06:35:38.178Z,20.02
2022-08-30T06:38:09.119Z,23.08
2022-08-30T06:40:36.533Z,20.55
2022-08-30T06:43:04.438Z,20.90
2022-08-30T06:45:31.205Z,22.00
2022-08-30T06:50:31.935Z,17.20
2022-08-30T06:53:04.478Z,18.65
2022-08-30T06:55:33.504Z,22.75
2022-08-30T06:58:01.224Z,24.20
2022-08-30T07:00:29.035Z,20.52
2022-08-30T07:02:55.891Z,24.02
2022-08-30T07:05:23.774Z,21.48
2022-08-30T07:07:54.834Z,20.50
2022-08-30T07:10:21.813Z,19.33
2022-08-30T07:12:48.841Z,19.60
2022-08-30T07:15:16.301Z,24.20
2022-08-30T07:18:01.589Z,19.25
2022-08-30T07:20:28.304Z,22.30
2022-08-30T07:23:06.932Z,22.88
2022-08-30T07:25:33.642Z,23.20
2022-08-30T07:28:00.269Z,21.30
2022-08-30T07:30:27.089Z,17.05
2022-08-30T07:32:53.751Z,18.02
2022-08-30T07:35:20.394Z,20.67
2022-08-30T07:37:47.244Z,17.50
2022-08-30T07:40:14.212Z,17.02
2022-08-30T07:42:41.084Z,18.42
2022-08-30T07:45:09.364Z,13.77
2022-08-30T07:47:36.172Z,20.13
2022-08-30T07:50:05.157Z,19.35
2022-08-30T07:52:32.711Z,16.05
2022-08-30T07:55:00.214Z,18.55
2022-08-30T07:57:27.507Z,17.00
2022-08-30T07:59:54.309Z,16.92
2022-08-30T08:02:21.032Z,27.40
2022-08-30T08:04:48.648Z,18.55
2022-08-30T08:07:15.773Z,15.63
2022-08-30T08:09:42.752Z,17.67
2022-08-30T08:12:09.845Z,19.23
2022-08-30T08:14:36.879Z,17.60
2022-08-30T08:17:05.116Z,14.35
2022-08-30T08:19:31.776Z,20.35
2022-08-30T08:22:20.828Z,18.88
2022-08-30T08:24:47.087Z,23.40
2022-08-30T08:27:13.687Z,21.13
2022-08-30T08:29:40.459Z,21.85
2022-08-30T08:32:07.178Z,22.55
2022-08-30T08:34:35.589Z,26.75
2022-08-30T08:37:02.737Z,21.73
2022-08-30T08:39:29.462Z,19.65
2022-08-30T08:42:05.111Z,20.35
2022-08-30T08:44:38.207Z,23.65
2022-08-30T08:47:20.833Z,19.52
2022-08-30T08:49:51.555Z,17.55
2022-08-30T08:53:45.414Z,21.90
2022-08-30T08:56:16.941Z,22.27
2022-08-30T08:58:48.797Z,19.98
2022-08-30T09:03:44.334Z,19.75
2022-08-30T09:06:45.482Z,16.60
2022-08-30T09:09:12.882Z,14.07
2022-08-30T09:11:41.553Z,18.63
2022-08-30T09:14:16.082Z,14.35
2022-08-30T09:16:54.281Z,18.75
2022-08-30T09:19:46.584Z,15.52
2022-08-30T09:22:20.374Z,13.77
2022-08-30T09:24:53.600Z,17.55
2022-08-30T09:27:27.141Z,13.48
2022-08-30T09:30:07.250Z,16.33
2022-08-30T09:32:52.686Z,19.30
2022-08-30T09:35:23.295Z,14.23
2022-08-30T09:38:04.345Z,17.70
2022-08-30T09:40:40.226Z,17.93
2022-08-30T09:43:19.354Z,16.67
2022-08-30T09:46:06.681Z,15.90
2022-08-30T09:48:40.810Z,16.48
2022-08-30T09:51:10.521Z,13.48
2022-08-30T09:54:18.528Z,17.65
2022-08-30T09:57:01.249Z,19.90
2022-08-30T09:59:37.261Z,15.10
2022-08-30T10:03:01.116Z,14.80
2022-08-30T10:05:49.193Z,16.85
2022-08-30T10:08:39.494Z,18.48
2022-08-30T10:11:29.631Z,18.42
2022-08-30T10:14:24.295Z,15.98
2022-08-30T10:17:18.211Z,16.48
2022-08-30T10:20:09.753Z,16.60
2022-08-30T10:22:48.397Z,15.00
2022-08-30T10:25:35.824Z,16.48
2022-08-30T10:28:09.112Z,19.48
2022-08-30T10:30:41.175Z,17.85
2022-08-30T10:33:17.539Z,19.50
2022-08-30T10:35:57.640Z,17.70
2022-08-30T10:38:37.171Z,27.35
2022-08-30T10:41:34.276Z,18.63
2022-08-30T10:44:11.553Z,15.85
2022-08-30T10:47:05.173Z,16.98
2022-08-30T10:49:40.467Z,21.23
2022-08-30T10:52:34.154Z,23.55
2022-08-30T10:55:08.526Z,17.98
2022-08-30T10:57:36.658Z,19.33
2022-08-30T11:00:12.125Z,17.40
2022-08-30T11:03:31.866Z,18.27
2022-08-30T11:06:10.467Z,18.48
2022-08-30T11:09:11.248Z,18.73
2022-08-30T11:12:15.863Z,17.75
2022-08-30T11:14:46.177Z,19.98
2022-08-30T11:17:27.330Z,21.77
2022-08-30T11:19:56.998Z,25.02
2022-08-30T11:22:36.823Z,15.93
2022-08-30T11:25:16.554Z,15.48
2022-08-30T11:27:58.890Z,18.45
2022-08-30T11:30:26.690Z,14.00
2022-08-30T11:33:05.405Z,17.65
2022-08-30T11:35:47.369Z,17.80
2022-08-30T11:38:40.644Z,22.70
2022-08-30T11:41:07.359Z,17.55
2022-08-30T11:43:40.320Z,15.27
2022-08-30T11:46:25.849Z,14.33
2022-08-30T11:49:11.809Z,16.65
2022-08-30T11:52:26.225Z,16.85
2022-08-30T11:55:00.011Z,23.48
2022-08-30T11:57:50.244Z,18.90
2022-08-30T12:00:39.773Z,22.58
2022-08-30T12:03:16.425Z,18.52
2022-08-30T12:05:44.357Z,14.65
2022-08-30T12:08:20.338Z,13.50
2022-08-30T12:10:51.323Z,13.10
2022-08-30T12:13:39.197Z,20.35
2022-08-30T12:16:13.921Z,18.27
2022-08-30T12:18:53.724Z,14.13
2022-08-30T12:21:21.998Z,19.13
2022-08-30T12:23:51.798Z,17.45
2022-08-30T12:26:31.299Z,19.38
2022-08-30T12:29:06.024Z,15.50
2022-08-30T12:31:33.667Z,16.58
2022-08-30T12:34:03.332Z,19.27
2022-08-30T12:36:49.690Z,13.95
2022-08-30T12:39:24.241Z,11.88
2022-08-30T12:41:51.420Z,21.00
2022-08-30T12:44:28.309Z,14.18
2022-08-30T12:47:00.336Z,16.05
2022-08-30T12:49:30.124Z,17.27
2022-08-30T12:52:18.593Z,16.35
2022-08-30T12:54:47.150Z,14.45
2022-08-30T12:57:32.271Z,14.65
2022-08-30T13:00:01.922Z,15.45
2022-08-30T13:02:46.108Z,15.55
2022-08-30T13:05:44.540Z,13.63
2022-08-30T13:08:15.592Z,17.95
2022-08-30T13:11:03.291Z,20.65
2022-08-30T13:13:42.201Z,15.18
2022-08-30T13:16:26.647Z,23.33
2022-08-30T13:19:44.709Z,18.60
2022-08-30T13:22:27.021Z,18.33
2022-08-30T13:24:54.311Z,12.07
2022-08-30T13:27:21.189Z,15.65
2022-08-30T13:29:48.609Z,13.18
2022-08-30T13:32:16.174Z,13.77
2022-08-30T13:34:43.644Z,17.13
2022-08-30T13:42:32.284Z,12.30
2022-08-30T13:44:59.248Z,15.07
2022-08-30T13:47:34.961Z,15.88
2022-08-30T13:50:02.251Z,15.93
2022-08-30T13:52:31.882Z,15.73
2022-08-30T13:55:01.697Z,13.02
2022-08-30T14:00:19.900Z,14.10
2022-08-30T14:02:54.876Z,13.10
2022-08-30T14:05:48.395Z,16.58
2022-08-30T14:11:09.561Z,15.00
2022-08-30T14:13:36.324Z,17.02
2022-08-30T14:18:54.415Z,16.10
2022-08-30T14:21:21.401Z,16.40
2022-08-30T14:23:51.254Z,14.82
2022-08-30T14:26:23.655Z,16.77
2022-08-30T14:28:52.161Z,21.85
2022-08-30T14:31:20.186Z,19.65
2022-08-30T14:33:47.628Z,18.80
2022-08-30T14:36:14.406Z,25.35
2022-08-30T14:38:42.938Z,17.30
2022-08-30T14:41:10.885Z,15.82
2022-08-30T14:43:40.679Z,20.65
2022-08-30T14:46:09.219Z,20.88
2022-08-30T14:48:38.368Z,12.27
2022-08-30T14:51:12.994Z,15.68
2022-08-30T14:53:39.727Z,19.92
2022-08-30T14:56:12.103Z,15.88
2022-08-30T14:58:38.818Z,13.95
2022-08-30T15:01:09.536Z,14.32
2022-08-30T15:03:38.300Z,16.47
2022-08-30T15:06:06.143Z,17.05
2022-08-30T15:08:33.699Z,18.52
2022-08-30T15:11:01.314Z,21.92
2022-08-30T15:13:28.704Z,21.27
2022-08-30T15:15:56.700Z,19.67
2022-08-30T15:18:24.586Z,18.05
2022-08-30T15:20:51.403Z,14.50
2022-08-30T15:23:18.084Z,18.35
2022-08-30T15:28:17.002Z,15.88
2022-08-30T15:30:46.484Z,18.10
2022-08-30T15:33:13.225Z,16.05
2022-08-30T15:35:41.372Z,18.50
2022-08-30T15:38:08.275Z,18.35
2022-08-30T15:40:39.436Z,16.38
2022-08-30T15:43:06.197Z,16.33
2022-08-30T15:45:33.170Z,17.77
2022-08-30T15:48:00.531Z,20.73
2022-08-30T15:50:28.094Z,14.90
2022-08-30T15:52:54.867Z,24.23
2022-08-30T15:55:21.794Z,25.55
2022-08-30T15:57:48.595Z,27.65
2022-08-30T16:00:15.728Z,26.20
2022-08-30T16:02:42.655Z,19.23
2022-08-30T16:05:09.923Z,40.33
2022-08-30T16:07:40.691Z,18.27
2022-08-30T16:10:08.565Z,17.80
2022-08-30T16:12:35.184Z,17.17
2022-08-30T16:15:01.839Z,15.63
2022-08-30T16:17:28.726Z,20.17
2022-08-30T16:19:58.880Z,12.07
2022-08-30T16:22:26.565Z,23.15
2022-08-30T16:24:53.256Z,14.52
2022-08-30T16:27:21.157Z,19.70
2022-08-30T16:29:48.317Z,20.50
2022-08-30T16:32:17.337Z,18.23
2022-08-30T16:34:43.963Z,19.80
2022-08-30T16:37:10.624Z,20.73
2022-08-30T16:39:37.458Z,22.83
2022-08-30T16:42:06.826Z,24.25
2022-08-30T16:44:33.848Z,20.35
2022-08-30T16:47:02.052Z,24.20
2022-08-30T16:49:29.535Z,19.00
2022-08-30T16:51:56.203Z,18.20
2022-08-30T16:54:23.227Z,20.15
2022-08-30T16:56:49.989Z,21.35
2022-08-30T16:59:16.859Z,18.17
2022-08-30T17:01:44.828Z,22.67
2022-08-30T17:04:15.732Z,22.42
2022-08-30T17:06:45.674Z,16.42
2022-08-30T17:09:12.297Z,23.60
2022-08-30T17:14:27.878Z,25.85
2022-08-30T17:16:57.958Z,30.88
2022-08-30T17:19:26.299Z,35.47
2022-08-30T17:21:53.904Z,27.08
2022-08-30T17:24:20.589Z,31.25
2022-08-30T17:26:47.532Z,26.27
2022-08-30T17:29:14.201Z,32.75
2022-08-30T17:31:42.973Z,25.20
2022-08-30T17:34:09.674Z,29.35
2022-08-30T17:36:39.604Z,32.28
2022-08-30T17:39:11.351Z,30.30
2022-08-30T17:41:40.074Z,33.38
2022-08-30T17:44:12.770Z,32.20
2022-08-30T17:46:39.946Z,51.45
2022-08-30T17:49:06.883Z,32.08
2022-08-30T17:51:40.892Z,34.40
2022-08-30T17:54:09.554Z,39.87
2022-08-30T17:56:36.158Z,26.63
2022-08-30T17:59:05.476Z,26.60
2022-08-30T18:01:32.523Z,21.58
2022-08-30T18:04:02.060Z,25.77
2022-08-30T18:06:33.291Z,24.30
2022-08-30T18:09:01.520Z,30.83
2022-08-30T18:11:28.317Z,35.13
2022-08-30T18:13:55.244Z,27.67
2022-08-30T18:16:26.575Z,28.60
2022-08-30T18:18:57.029Z,29.45
2022-08-30T18:21:24.424Z,26.23
2022-08-30T18:23:52.577Z,27.80
2022-08-30T18:26:19.605Z,37.40
2022-08-30T18:28:51.213Z,29.00
2022-08-30T18:31:17.894Z,22.45
2022-08-30T18:33:44.723Z,25.83
2022-08-30T18:36:11.547Z,29.90
2022-08-30T18:38:39.895Z,27.05
2022-08-30T18:41:13.812Z,31.73
2022-08-30T18:43:41.681Z,30.67
2022-08-30T18:46:11.995Z,24.88
2022-08-30T18:48:39.134Z,24.83
2022-08-30T18:51:14.412Z,28.20
2022-08-30T18:53:41.510Z,32.78
2022-08-30T18:56:08.813Z,36.00
2022-08-30T18:58:40.459Z,32.95
2022-08-30T19:01:12.778Z,27.98
2022-08-30T19:03:40.092Z,28.80
2022-08-30T19:06:11.514Z,37.33
2022-08-30T19:08:40.212Z,29.00
2022-08-30T19:11:07.845Z,33.53
2022-08-30T19:13:36.175Z,30.98
2022-08-30T19:16:04.874Z,31.48
2022-08-30T19:18:32.447Z,30.60
2022-08-30T19:20:59.185Z,30.10
2022-08-30T19:23:33.045Z,28.35
2022-08-30T19:26:00.802Z,30.02
2022-08-30T19:28:28.270Z,35.63
2022-08-30T19:30:54.916Z,44.03
2022-08-30T19:33:21.743Z,21.67
2022-08-30T19:35:51.175Z,29.83
2022-08-30T19:38:18.428Z,32.83
2022-08-30T19:40:45.095Z,29.15
2022-08-30T19:43:12.453Z,26.77
2022-08-30T19:45:39.595Z,31.67
2022-08-30T19:48:06.209Z,32.72
2022-08-30T19:50:33.088Z,28.92
2022-08-30T19:52:59.737Z,32.80
2022-08-30T19:55:28.686Z,32.95
2022-08-30T19:57:57.234Z,39.00
2022-08-30T20:00:24.050Z,32.08
2022-08-30T20:02:51.396Z,49.92
2022-08-30T20:05:19.029Z,44.47
2022-08-30T20:07:45.706Z,37.70
2022-08-30T20:10:15.197Z,45.45
2022-08-30T20:12:46.905Z,35.30
2022-08-30T20:15:17.704Z,30.67
2022-08-30T20:18:03.414Z,31.33
2022-08-30T20:20:33.710Z,24.45
2022-08-30T20:23:03.824Z,35.53
2022-08-30T20:24:23.941Z,28.00
2022-08-30T20:25:30.897Z,27.33
2022-08-30T20:27:59.397Z,23.85
2022-08-30T20:30:26.197Z,26.95
2022-08-30T20:32:54.261Z,27.08
2022-08-30T20:35:21.090Z,26.90
2022-08-30T20:37:47.683Z,24.95
2022-08-30T20:40:15.964Z,31.65
2022-08-30T20:42:45.687Z,34.90
2022-08-30T20:45:15.370Z,37.13
2022-08-30T20:47:43.013Z,37.53
2022-08-30T20:50:13.571Z,38.10
2022-08-30T20:52:41.517Z,41.78
2022-08-30T20:55:09.396Z,39.65
2022-08-30T20:57:36.112Z,50.42
2022-08-30T21:00:03.755Z,50.80
2022-08-30T21:02:33.647Z,45.90
2022-08-30T21:05:00.321Z,54.20
2022-08-30T21:07:27.212Z,56.78
2022-08-30T21:09:54.055Z,48.78
2022-08-30T21:12:20.868Z,50.65
2022-08-30T21:14:47.524Z,47.58
2022-08-30T21:17:14.192Z,43.97
2022-08-30T21:19:43.813Z,40.17
2022-08-30T21:22:11.314Z,36.22
2022-08-30T21:24:37.920Z,35.10
2022-08-30T21:27:04.856Z,31.75
2022-08-30T21:29:33.109Z,28.48
2022-08-30T21:31:59.772Z,37.42
2022-08-30T21:34:26.489Z,36.00
2022-08-30T21:36:53.343Z,44.47
2022-08-30T21:39:26.289Z,62.47
2022-08-30T21:41:57.014Z,67.28
2022-08-30T21:44:26.229Z,70.50
2022-08-30T21:46:55.232Z,58.45
2022-08-30T21:49:23.612Z,52.80
2022-08-30T21:51:51.621Z,51.92
2022-08-30T21:54:18.970Z,50.05
2022-08-30T21:56:48.671Z,45.70
2022-08-30T21:59:15.454Z,46.25
2022-08-30T22:01:43.369Z,36.25
2022-08-30T22:04:11.091Z,33.90
2022-08-30T22:06:40.694Z,33.40
2022-08-30T22:09:10.145Z,30.73
2022-08-30T22:11:37.407Z,31.60
2022-08-30T22:14:05.457Z,28.20
2022-08-30T22:16:32.555Z,25.50
2022-08-30T22:18:59.383Z,22.85
2022-08-30T22:21:28.087Z,26.38
2022-08-30T22:23:55.600Z,24.65
2022-08-30T22:26:23.975Z,24.25
2022-08-30T22:28:52.875Z,25.27
2022-08-30T22:31:21.079Z,26.83
2022-08-30T22:33:48.703Z,23.13
2022-08-30T22:36:19.439Z,27.13
2022-08-30T22:38:46.118Z,24.05
2022-08-30T22:41:18.234Z,23.80
2022-08-30T22:43:45.389Z,26.25
2022-08-30T22:46:12.454Z,24.80
2022-08-30T22:48:42.133Z,23.58
2022-08-30T22:51:09.968Z,27.45
2022-08-30T22:53:36.916Z,27.02
2022-08-30T22:56:22.364Z,23.58
2022-08-30T22:58:49.548Z,21.67
2022-08-30T23:01:42.954Z,30.25
2022-08-30T23:04:10.831Z,21.80
2022-08-30T23:06:37.518Z,21.55
2022-08-30T23:09:05.756Z,23.33
2022-08-30T23:11:33.603Z,19.05
2022-08-30T23:14:02.153Z,24.05
2022-08-30T23:16:29.001Z,16.45
2022-08-30T23:18:55.904Z,19.95
2022-08-30T23:21:25.082Z,21.02
2022-08-30T23:24:13.302Z,14.60
2022-08-30T23:26:59.311Z,19.08
2022-08-30T23:29:44.801Z,17.65
2022-08-30T23:32:30.187Z,22.02
2022-08-30T23:35:15.598Z,21.20
2022-08-30T23:38:00.821Z,18.80
2022-08-30T23:40:46.025Z,17.55
2022-08-30T23:43:31.793Z,17.42
2022-08-30T23:46:19.221Z,20.45
2022-08-30T23:49:06.186Z,17.65
2022-08-30T23:51:51.476Z,24.58
2022-08-30T23:54:36.914Z,19.98
2022-08-30T23:57:23.697Z,17.27
